sensor_id;sensor_type;location;lat;lon;timestamp;P1;durP1;ratioP1;P2;durP2;ratioP2
64520;SDS011;50896;46.714;17.322;2023-04-15T00:00:55;1.85;;;1.42;;
64520;SDS011;50896;46.714;17.322;2023-04-15T00:03:22;2.45;;;1.77;;
64520;SDS011;50896;46.714;17.322;2023-04-15T00:05:50;2.80;;;1.75;;
64520;SDS011;50896;46.714;17.322;2023-04-15T00:08:17;2.60;;;1.85;;
64520;SDS011;50896;46.714;17.322;2023-04-15T00:10:44;2.72;;;2.03;;
64520;SDS011;50896;46.714;17.322;2023-04-15T00:13:12;2.70;;;1.80;;
64520;SDS011;50896;46.714;17.322;2023-04-15T00:15:38;3.28;;;1.95;;
64520;SDS011;50896;46.714;17.322;2023-04-15T00:18:06;3.80;;;1.77;;
64520;SDS011;50896;46.714;17.322;2023-04-15T00:20:36;3.25;;;1.80;;
64520;SDS011;50896;46.714;17.322;2023-04-15T00:23:03;3.00;;;1.80;;
64520;SDS011;50896;46.714;17.322;2023-04-15T00:25:30;2.13;;;1.65;;
64520;SDS011;50896;46.714;17.322;2023-04-15T00:27:57;2.40;;;1.77;;
64520;SDS011;50896;46.714;17.322;2023-04-15T00:30:24;2.67;;;1.65;;
64520;SDS011;50896;46.714;17.322;2023-04-15T00:32:51;1.80;;;1.35;;
64520;SDS011;50896;46.714;17.322;2023-04-15T00:35:20;2.78;;;1.60;;
64520;SDS011;50896;46.714;17.322;2023-04-15T00:37:49;1.67;;;1.48;;
64520;SDS011;50896;46.714;17.322;2023-04-15T00:40:17;2.97;;;1.95;;
64520;SDS011;50896;46.714;17.322;2023-04-15T00:42:46;2.80;;;1.50;;
64520;SDS011;50896;46.714;17.322;2023-04-15T00:45:13;2.05;;;1.50;;
64520;SDS011;50896;46.714;17.322;2023-04-15T00:47:41;1.67;;;1.50;;
64520;SDS011;50896;46.714;17.322;2023-04-15T00:50:09;3.30;;;1.33;;
64520;SDS011;50896;46.714;17.322;2023-04-15T00:52:38;1.50;;;1.20;;
64520;SDS011;50896;46.714;17.322;2023-04-15T00:55:05;2.33;;;1.30;;
64520;SDS011;50896;46.714;17.322;2023-04-15T00:57:33;2.25;;;1.52;;
64520;SDS011;50896;46.714;17.322;2023-04-15T01:00:00;1.45;;;1.25;;
64520;SDS011;50896;46.714;17.322;2023-04-15T01:02:29;2.40;;;1.60;;
64520;SDS011;50896;46.714;17.322;2023-04-15T01:04:57;3.03;;;1.52;;
64520;SDS011;50896;46.714;17.322;2023-04-15T01:07:24;2.35;;;1.77;;
64520;SDS011;50896;46.714;17.322;2023-04-15T01:09:52;2.53;;;1.90;;
64520;SDS011;50896;46.714;17.322;2023-04-15T01:12:18;2.53;;;1.70;;
64520;SDS011;50896;46.714;17.322;2023-04-15T01:14:46;2.95;;;1.80;;
64520;SDS011;50896;46.714;17.322;2023-04-15T01:17:13;2.00;;;1.80;;
64520;SDS011;50896;46.714;17.322;2023-04-15T01:19:40;2.20;;;1.70;;
64520;SDS011;50896;46.714;17.322;2023-04-15T01:22:07;2.63;;;2.20;;
64520;SDS011;50896;46.714;17.322;2023-04-15T01:24:36;3.20;;;2.00;;
64520;SDS011;50896;46.714;17.322;2023-04-15T01:27:03;2.35;;;1.90;;
64520;SDS011;50896;46.714;17.322;2023-04-15T01:29:32;2.65;;;2.13;;
64520;SDS011;50896;46.714;17.322;2023-04-15T01:32:01;2.55;;;1.92;;
64520;SDS011;50896;46.714;17.322;2023-04-15T01:34:27;2.67;;;2.25;;
64520;SDS011;50896;46.714;17.322;2023-04-15T01:36:54;2.47;;;2.20;;
64520;SDS011;50896;46.714;17.322;2023-04-15T01:39:21;3.53;;;2.60;;
64520;SDS011;50896;46.714;17.322;2023-04-15T01:41:48;6.22;;;2.40;;
64520;SDS011;50896;46.714;17.322;2023-04-15T01:44:15;2.78;;;2.00;;
64520;SDS011;50896;46.714;17.322;2023-04-15T01:46:42;3.13;;;2.30;;
64520;SDS011;50896;46.714;17.322;2023-04-15T01:49:09;3.28;;;2.42;;
64520;SDS011;50896;46.714;17.322;2023-04-15T01:51:36;3.33;;;2.20;;
64520;SDS011;50896;46.714;17.322;2023-04-15T01:54:02;2.78;;;2.40;;
64520;SDS011;50896;46.714;17.322;2023-04-15T01:56:29;3.45;;;2.42;;
64520;SDS011;50896;46.714;17.322;2023-04-15T01:58:56;3.28;;;2.38;;
64520;SDS011;50896;46.714;17.322;2023-04-15T02:01:23;2.38;;;2.17;;
64520;SDS011;50896;46.714;17.322;2023-04-15T02:03:50;3.15;;;2.05;;
64520;SDS011;50896;46.714;17.322;2023-04-15T02:06:17;2.40;;;1.90;;
64520;SDS011;50896;46.714;17.322;2023-04-15T02:08:44;2.90;;;2.00;;
64520;SDS011;50896;46.714;17.322;2023-04-15T02:11:11;2.72;;;1.90;;
64520;SDS011;50896;46.714;17.322;2023-04-15T02:13:38;2.30;;;2.10;;
64520;SDS011;50896;46.714;17.322;2023-04-15T02:16:14;4.43;;;2.28;;
64520;SDS011;50896;46.714;17.322;2023-04-15T02:18:44;5.10;;;2.20;;
64520;SDS011;50896;46.714;17.322;2023-04-15T02:21:12;3.58;;;2.65;;
64520;SDS011;50896;46.714;17.322;2023-04-15T02:23:39;4.38;;;2.40;;
64520;SDS011;50896;46.714;17.322;2023-04-15T02:26:06;4.20;;;2.38;;
64520;SDS011;50896;46.714;17.322;2023-04-15T02:28:33;3.88;;;2.10;;
64520;SDS011;50896;46.714;17.322;2023-04-15T02:31:04;2.72;;;2.28;;
64520;SDS011;50896;46.714;17.322;2023-04-15T02:33:33;3.00;;;2.47;;
64520;SDS011;50896;46.714;17.322;2023-04-15T02:36:00;2.58;;;2.38;;
64520;SDS011;50896;46.714;17.322;2023-04-15T02:38:27;3.35;;;2.30;;
64520;SDS011;50896;46.714;17.322;2023-04-15T02:40:54;3.15;;;2.47;;
64520;SDS011;50896;46.714;17.322;2023-04-15T02:43:22;4.00;;;2.05;;
64520;SDS011;50896;46.714;17.322;2023-04-15T02:45:49;2.85;;;2.17;;
64520;SDS011;50896;46.714;17.322;2023-04-15T02:48:16;2.10;;;1.80;;
64520;SDS011;50896;46.714;17.322;2023-04-15T02:50:45;3.35;;;2.50;;
64520;SDS011;50896;46.714;17.322;2023-04-15T02:53:14;3.83;;;2.10;;
64520;SDS011;50896;46.714;17.322;2023-04-15T02:55:41;3.95;;;2.65;;
64520;SDS011;50896;46.714;17.322;2023-04-15T02:58:08;2.35;;;1.92;;
64520;SDS011;50896;46.714;17.322;2023-04-15T03:00:35;3.33;;;2.28;;
64520;SDS011;50896;46.714;17.322;2023-04-15T03:03:02;3.67;;;1.95;;
64520;SDS011;50896;46.714;17.322;2023-04-15T03:05:31;4.43;;;2.10;;
64520;SDS011;50896;46.714;17.322;2023-04-15T03:07:59;5.30;;;2.40;;
64520;SDS011;50896;46.714;17.322;2023-04-15T03:10:26;3.15;;;2.10;;
64520;SDS011;50896;46.714;17.322;2023-04-15T03:12:54;2.45;;;2.03;;
64520;SDS011;50896;46.714;17.322;2023-04-15T03:15:22;3.15;;;2.10;;
64520;SDS011;50896;46.714;17.322;2023-04-15T03:17:51;2.90;;;2.20;;
64520;SDS011;50896;46.714;17.322;2023-04-15T03:20:18;2.83;;;2.20;;
64520;SDS011;50896;46.714;17.322;2023-04-15T03:22:46;3.00;;;2.25;;
64520;SDS011;50896;46.714;17.322;2023-04-15T03:25:13;5.88;;;2.30;;
64520;SDS011;50896;46.714;17.322;2023-04-15T03:27:41;3.28;;;2.55;;
64520;SDS011;50896;46.714;17.322;2023-04-15T03:30:08;2.72;;;2.17;;
64520;SDS011;50896;46.714;17.322;2023-04-15T03:32:36;2.92;;;2.05;;
64520;SDS011;50896;46.714;17.322;2023-04-15T03:35:05;3.08;;;2.35;;
64520;SDS011;50896;46.714;17.322;2023-04-15T03:37:32;3.45;;;2.47;;
64520;SDS011;50896;46.714;17.322;2023-04-15T03:39:59;2.85;;;2.50;;
64520;SDS011;50896;46.714;17.322;2023-04-15T03:42:25;3.88;;;2.55;;
64520;SDS011;50896;46.714;17.322;2023-04-15T03:44:52;3.22;;;2.53;;
64520;SDS011;50896;46.714;17.322;2023-04-15T03:47:19;4.57;;;2.70;;
64520;SDS011;50896;46.714;17.322;2023-04-15T03:49:46;3.92;;;2.97;;
64520;SDS011;50896;46.714;17.322;2023-04-15T03:52:13;4.43;;;2.65;;
64520;SDS011;50896;46.714;17.322;2023-04-15T03:54:39;3.15;;;2.85;;
64520;SDS011;50896;46.714;17.322;2023-04-15T03:57:06;3.28;;;2.70;;
64520;SDS011;50896;46.714;17.322;2023-04-15T03:59:33;3.97;;;2.83;;
64520;SDS011;50896;46.714;17.322;2023-04-15T04:02:00;3.78;;;2.72;;
64520;SDS011;50896;46.714;17.322;2023-04-15T04:04:27;3.33;;;2.50;;
64520;SDS011;50896;46.714;17.322;2023-04-15T04:06:54;3.28;;;2.70;;
64520;SDS011;50896;46.714;17.322;2023-04-15T04:09:20;4.68;;;2.85;;
64520;SDS011;50896;46.714;17.322;2023-04-15T04:11:47;4.70;;;3.00;;
64520;SDS011;50896;46.714;17.322;2023-04-15T04:14:14;5.28;;;2.90;;
64520;SDS011;50896;46.714;17.322;2023-04-15T04:16:41;4.57;;;3.35;;
64520;SDS011;50896;46.714;17.322;2023-04-15T04:19:08;3.55;;;2.67;;
64520;SDS011;50896;46.714;17.322;2023-04-15T04:21:35;4.85;;;2.97;;
64520;SDS011;50896;46.714;17.322;2023-04-15T04:24:01;4.15;;;2.80;;
64520;SDS011;50896;46.714;17.322;2023-04-15T04:26:28;3.55;;;2.83;;
64520;SDS011;50896;46.714;17.322;2023-04-15T04:28:55;5.60;;;3.28;;
64520;SDS011;50896;46.714;17.322;2023-04-15T04:31:22;3.40;;;3.00;;
64520;SDS011;50896;46.714;17.322;2023-04-15T04:33:49;3.60;;;2.90;;
64520;SDS011;50896;46.714;17.322;2023-04-15T04:36:15;3.72;;;2.85;;
64520;SDS011;50896;46.714;17.322;2023-04-15T04:38:42;4.18;;;3.28;;
64520;SDS011;50896;46.714;17.322;2023-04-15T04:41:09;3.92;;;3.05;;
64520;SDS011;50896;46.714;17.322;2023-04-15T04:43:36;3.28;;;2.60;;
64520;SDS011;50896;46.714;17.322;2023-04-15T04:46:03;4.10;;;2.78;;
64520;SDS011;50896;46.714;17.322;2023-04-15T04:48:29;3.17;;;2.53;;
64520;SDS011;50896;46.714;17.322;2023-04-15T04:50:56;6.53;;;2.97;;
64520;SDS011;50896;46.714;17.322;2023-04-15T04:53:23;5.38;;;3.05;;
64520;SDS011;50896;46.714;17.322;2023-04-15T04:55:50;6.00;;;3.13;;
64520;SDS011;50896;46.714;17.322;2023-04-15T04:58:17;3.83;;;2.88;;
64520;SDS011;50896;46.714;17.322;2023-04-15T05:00:43;3.67;;;2.70;;
64520;SDS011;50896;46.714;17.322;2023-04-15T05:03:10;3.72;;;2.90;;
64520;SDS011;50896;46.714;17.322;2023-04-15T05:05:37;3.47;;;2.80;;
64520;SDS011;50896;46.714;17.322;2023-04-15T05:08:06;4.20;;;2.50;;
64520;SDS011;50896;46.714;17.322;2023-04-15T05:10:33;4.38;;;2.90;;
64520;SDS011;50896;46.714;17.322;2023-04-15T05:13:00;4.05;;;2.97;;
64520;SDS011;50896;46.714;17.322;2023-04-15T05:15:26;4.05;;;2.97;;
64520;SDS011;50896;46.714;17.322;2023-04-15T05:17:53;3.33;;;2.78;;
64520;SDS011;50896;46.714;17.322;2023-04-15T05:20:20;5.00;;;2.50;;
64520;SDS011;50896;46.714;17.322;2023-04-15T05:22:47;4.85;;;2.67;;
64520;SDS011;50896;46.714;17.322;2023-04-15T05:25:14;3.90;;;2.90;;
64520;SDS011;50896;46.714;17.322;2023-04-15T05:27:41;4.10;;;2.88;;
64520;SDS011;50896;46.714;17.322;2023-04-15T05:30:08;3.28;;;2.83;;
64520;SDS011;50896;46.714;17.322;2023-04-15T05:32:38;3.85;;;3.00;;
64520;SDS011;50896;46.714;17.322;2023-04-15T05:35:05;3.70;;;2.83;;
64520;SDS011;50896;46.714;17.322;2023-04-15T05:37:33;2.95;;;2.58;;
64520;SDS011;50896;46.714;17.322;2023-04-15T05:40:00;4.63;;;3.10;;
64520;SDS011;50896;46.714;17.322;2023-04-15T05:42:26;3.35;;;3.00;;
64520;SDS011;50896;46.714;17.322;2023-04-15T05:44:53;4.05;;;3.00;;
64520;SDS011;50896;46.714;17.322;2023-04-15T05:47:20;3.92;;;3.05;;
64520;SDS011;50896;46.714;17.322;2023-04-15T05:49:47;3.25;;;2.70;;
64520;SDS011;50896;46.714;17.322;2023-04-15T05:52:14;3.05;;;2.58;;
64520;SDS011;50896;46.714;17.322;2023-04-15T05:54:40;4.25;;;2.85;;
64520;SDS011;50896;46.714;17.322;2023-04-15T05:57:07;2.90;;;2.35;;
64520;SDS011;50896;46.714;17.322;2023-04-15T05:59:34;3.67;;;2.78;;
64520;SDS011;50896;46.714;17.322;2023-04-15T06:02:01;3.33;;;2.40;;
64520;SDS011;50896;46.714;17.322;2023-04-15T06:04:28;2.97;;;2.60;;
64520;SDS011;50896;46.714;17.322;2023-04-15T06:06:55;3.72;;;2.72;;
64520;SDS011;50896;46.714;17.322;2023-04-15T06:09:22;2.92;;;2.45;;
64520;SDS011;50896;46.714;17.322;2023-04-15T06:11:50;3.70;;;2.40;;
64520;SDS011;50896;46.714;17.322;2023-04-15T06:14:20;2.90;;;2.47;;
64520;SDS011;50896;46.714;17.322;2023-04-15T06:16:47;3.05;;;2.25;;
64520;SDS011;50896;46.714;17.322;2023-04-15T06:19:14;5.07;;;3.13;;
64520;SDS011;50896;46.714;17.322;2023-04-15T06:21:41;3.38;;;2.50;;
64520;SDS011;50896;46.714;17.322;2023-04-15T06:24:08;3.42;;;2.53;;
64520;SDS011;50896;46.714;17.322;2023-04-15T06:26:35;3.28;;;2.30;;
64520;SDS011;50896;46.714;17.322;2023-04-15T06:29:01;4.03;;;2.42;;
64520;SDS011;50896;46.714;17.322;2023-04-15T06:31:28;5.32;;;2.75;;
64520;SDS011;50896;46.714;17.322;2023-04-15T06:33:56;4.53;;;3.15;;
64520;SDS011;50896;46.714;17.322;2023-04-15T06:36:22;3.95;;;2.88;;
64520;SDS011;50896;46.714;17.322;2023-04-15T06:38:49;3.30;;;2.92;;
64520;SDS011;50896;46.714;17.322;2023-04-15T06:41:16;2.83;;;2.25;;
64520;SDS011;50896;46.714;17.322;2023-04-15T06:43:43;3.85;;;2.60;;
64520;SDS011;50896;46.714;17.322;2023-04-15T06:46:10;3.30;;;2.72;;
64520;SDS011;50896;46.714;17.322;2023-04-15T06:48:37;4.53;;;2.33;;
64520;SDS011;50896;46.714;17.322;2023-04-15T06:51:04;3.08;;;2.08;;
64520;SDS011;50896;46.714;17.322;2023-04-15T06:53:31;2.50;;;2.10;;
64520;SDS011;50896;46.714;17.322;2023-04-15T06:55:58;2.60;;;2.40;;
64520;SDS011;50896;46.714;17.322;2023-04-15T06:58:25;2.80;;;2.38;;
64520;SDS011;50896;46.714;17.322;2023-04-15T07:00:52;4.00;;;2.63;;
64520;SDS011;50896;46.714;17.322;2023-04-15T07:03:19;4.00;;;2.88;;
64520;SDS011;50896;46.714;17.322;2023-04-15T07:05:46;6.35;;;2.90;;
64520;SDS011;50896;46.714;17.322;2023-04-15T07:08:12;3.08;;;2.53;;
64520;SDS011;50896;46.714;17.322;2023-04-15T07:10:40;2.80;;;2.08;;
64520;SDS011;50896;46.714;17.322;2023-04-15T07:13:06;3.47;;;2.20;;
64520;SDS011;50896;46.714;17.322;2023-04-15T07:15:34;2.83;;;2.05;;
64520;SDS011;50896;46.714;17.322;2023-04-15T07:18:01;2.63;;;1.80;;
64520;SDS011;50896;46.714;17.322;2023-04-15T07:20:28;2.42;;;1.80;;
64520;SDS011;50896;46.714;17.322;2023-04-15T07:22:54;3.97;;;2.03;;
64520;SDS011;50896;46.714;17.322;2023-04-15T07:25:21;3.63;;;2.03;;
64520;SDS011;50896;46.714;17.322;2023-04-15T07:27:48;2.50;;;1.90;;
64520;SDS011;50896;46.714;17.322;2023-04-15T07:30:15;3.08;;;1.95;;
64520;SDS011;50896;46.714;17.322;2023-04-15T07:32:42;2.55;;;2.10;;
64520;SDS011;50896;46.714;17.322;2023-04-15T07:35:09;2.50;;;2.13;;
64520;SDS011;50896;46.714;17.322;2023-04-15T07:37:36;2.60;;;2.25;;
64520;SDS011;50896;46.714;17.322;2023-04-15T07:40:03;2.80;;;2.38;;
64520;SDS011;50896;46.714;17.322;2023-04-15T07:42:32;3.75;;;2.10;;
64520;SDS011;50896;46.714;17.322;2023-04-15T07:44:59;3.30;;;2.20;;
64520;SDS011;50896;46.714;17.322;2023-04-15T07:47:26;4.22;;;2.00;;
64520;SDS011;50896;46.714;17.322;2023-04-15T07:49:53;2.95;;;2.00;;
64520;SDS011;50896;46.714;17.322;2023-04-15T07:52:20;3.50;;;2.20;;
64520;SDS011;50896;46.714;17.322;2023-04-15T07:54:47;4.97;;;2.42;;
64520;SDS011;50896;46.714;17.322;2023-04-15T07:57:14;4.80;;;2.00;;
64520;SDS011;50896;46.714;17.322;2023-04-15T07:59:42;2.55;;;2.00;;
64520;SDS011;50896;46.714;17.322;2023-04-15T08:02:09;3.15;;;2.20;;
64520;SDS011;50896;46.714;17.322;2023-04-15T08:04:37;3.90;;;2.25;;
64520;SDS011;50896;46.714;17.322;2023-04-15T08:07:04;4.53;;;2.33;;
64520;SDS011;50896;46.714;17.322;2023-04-15T08:09:31;3.28;;;2.50;;
64520;SDS011;50896;46.714;17.322;2023-04-15T08:11:58;4.07;;;2.22;;
64520;SDS011;50896;46.714;17.322;2023-04-15T08:14:25;2.88;;;2.40;;
64520;SDS011;50896;46.714;17.322;2023-04-15T08:16:52;2.92;;;2.38;;
64520;SDS011;50896;46.714;17.322;2023-04-15T08:19:19;3.10;;;2.25;;
64520;SDS011;50896;46.714;17.322;2023-04-15T08:21:46;2.85;;;2.33;;
64520;SDS011;50896;46.714;17.322;2023-04-15T08:24:13;3.67;;;2.50;;
64520;SDS011;50896;46.714;17.322;2023-04-15T08:26:39;3.83;;;2.03;;
64520;SDS011;50896;46.714;17.322;2023-04-15T08:29:07;3.20;;;2.40;;
64520;SDS011;50896;46.714;17.322;2023-04-15T08:31:34;3.63;;;2.22;;
64520;SDS011;50896;46.714;17.322;2023-04-15T08:34:01;3.53;;;2.38;;
64520;SDS011;50896;46.714;17.322;2023-04-15T08:36:28;3.28;;;2.00;;
64520;SDS011;50896;46.714;17.322;2023-04-15T08:38:55;4.35;;;2.50;;
64520;SDS011;50896;46.714;17.322;2023-04-15T08:41:22;4.18;;;2.72;;
64520;SDS011;50896;46.714;17.322;2023-04-15T08:43:52;3.33;;;2.40;;
64520;SDS011;50896;46.714;17.322;2023-04-15T08:46:20;2.90;;;2.60;;
64520;SDS011;50896;46.714;17.322;2023-04-15T08:48:48;3.42;;;2.03;;
64520;SDS011;50896;46.714;17.322;2023-04-15T08:51:16;2.42;;;2.17;;
64520;SDS011;50896;46.714;17.322;2023-04-15T08:53:44;3.83;;;2.50;;
64520;SDS011;50896;46.714;17.322;2023-04-15T08:56:13;2.97;;;2.50;;
64520;SDS011;50896;46.714;17.322;2023-04-15T08:58:42;4.10;;;2.33;;
64520;SDS011;50896;46.714;17.322;2023-04-15T09:01:10;2.95;;;2.17;;
64520;SDS011;50896;46.714;17.322;2023-04-15T09:03:38;3.42;;;2.10;;
64520;SDS011;50896;46.714;17.322;2023-04-15T09:06:06;3.40;;;2.50;;
64520;SDS011;50896;46.714;17.322;2023-04-15T09:08:33;3.40;;;2.42;;
64520;SDS011;50896;46.714;17.322;2023-04-15T09:11:01;3.15;;;2.13;;
64520;SDS011;50896;46.714;17.322;2023-04-15T09:13:29;5.10;;;3.00;;
64520;SDS011;50896;46.714;17.322;2023-04-15T09:15:56;3.35;;;2.65;;
64520;SDS011;50896;46.714;17.322;2023-04-15T09:18:28;4.35;;;2.10;;
64520;SDS011;50896;46.714;17.322;2023-04-15T09:21:02;4.00;;;2.78;;
64520;SDS011;50896;46.714;17.322;2023-04-15T09:23:31;6.78;;;2.58;;
64520;SDS011;50896;46.714;17.322;2023-04-15T09:25:58;4.53;;;2.50;;
64520;SDS011;50896;46.714;17.322;2023-04-15T09:28:25;3.88;;;2.88;;
64520;SDS011;50896;46.714;17.322;2023-04-15T09:30:54;3.80;;;2.38;;
64520;SDS011;50896;46.714;17.322;2023-04-15T09:33:22;2.97;;;2.63;;
64520;SDS011;50896;46.714;17.322;2023-04-15T09:38:28;3.45;;;2.80;;
64520;SDS011;50896;46.714;17.322;2023-04-15T09:40:57;3.30;;;2.42;;
64520;SDS011;50896;46.714;17.322;2023-04-15T09:43:37;3.78;;;2.65;;
64520;SDS011;50896;46.714;17.322;2023-04-15T09:46:05;5.25;;;2.55;;
64520;SDS011;50896;46.714;17.322;2023-04-15T09:48:35;4.68;;;2.85;;
64520;SDS011;50896;46.714;17.322;2023-04-15T09:51:02;4.32;;;2.70;;
64520;SDS011;50896;46.714;17.322;2023-04-15T09:53:29;4.78;;;2.90;;
64520;SDS011;50896;46.714;17.322;2023-04-15T09:56:00;3.70;;;2.85;;
64520;SDS011;50896;46.714;17.322;2023-04-15T09:58:29;3.55;;;2.88;;
64520;SDS011;50896;46.714;17.322;2023-04-15T10:00:59;6.50;;;3.08;;
64520;SDS011;50896;46.714;17.322;2023-04-15T10:03:38;4.45;;;2.90;;
64520;SDS011;50896;46.714;17.322;2023-04-15T10:06:07;3.60;;;2.97;;
64520;SDS011;50896;46.714;17.322;2023-04-15T10:08:35;3.72;;;2.60;;
64520;SDS011;50896;46.714;17.322;2023-04-15T10:11:02;3.33;;;2.70;;
64520;SDS011;50896;46.714;17.322;2023-04-15T10:13:30;2.80;;;2.55;;
64520;SDS011;50896;46.714;17.322;2023-04-15T10:16:07;4.05;;;2.40;;
64520;SDS011;50896;46.714;17.322;2023-04-15T10:18:39;3.03;;;2.40;;
64520;SDS011;50896;46.714;17.322;2023-04-15T10:21:09;3.33;;;2.50;;
64520;SDS011;50896;46.714;17.322;2023-04-15T10:23:36;4.55;;;2.42;;
64520;SDS011;50896;46.714;17.322;2023-04-15T10:26:04;2.95;;;2.35;;
64520;SDS011;50896;46.714;17.322;2023-04-15T10:28:31;2.83;;;2.45;;
64520;SDS011;50896;46.714;17.322;2023-04-15T10:30:58;3.28;;;2.13;;
64520;SDS011;50896;46.714;17.322;2023-04-15T10:33:27;3.95;;;2.60;;
64520;SDS011;50896;46.714;17.322;2023-04-15T10:35:54;2.15;;;1.95;;
64520;SDS011;50896;46.714;17.322;2023-04-15T10:41:24;3.80;;;2.50;;
64520;SDS011;50896;46.714;17.322;2023-04-15T10:43:54;4.07;;;2.42;;
64520;SDS011;50896;46.714;17.322;2023-04-15T10:49:16;2.37;;;2.07;;
64520;SDS011;50896;46.714;17.322;2023-04-15T10:51:50;4.25;;;1.77;;
64520;SDS011;50896;46.714;17.322;2023-04-15T10:57:40;4.25;;;1.70;;
64520;SDS011;50896;46.714;17.322;2023-04-15T10:59:58;3.53;;;2.08;;
64520;SDS011;50896;46.714;17.322;2023-04-15T11:05:19;1.80;;;1.50;;
64520;SDS011;50896;46.714;17.322;2023-04-15T11:12:44;2.35;;;1.23;;
64520;SDS011;50896;46.714;17.322;2023-04-15T11:16:12;2.08;;;1.30;;
64520;SDS011;50896;46.714;17.322;2023-04-15T11:18:11;4.22;;;1.20;;
64520;SDS011;50896;46.714;17.322;2023-04-15T11:20:46;4.13;;;1.67;;
64520;SDS011;50896;46.714;17.322;2023-04-15T11:23:19;3.42;;;1.60;;
64520;SDS011;50896;46.714;17.322;2023-04-15T11:25:54;1.48;;;1.30;;
64520;SDS011;50896;46.714;17.322;2023-04-15T11:28:26;1.42;;;1.20;;
64520;SDS011;50896;46.714;17.322;2023-04-15T11:30:54;3.67;;;1.48;;
64520;SDS011;50896;46.714;17.322;2023-04-15T11:33:22;3.55;;;1.60;;
64520;SDS011;50896;46.714;17.322;2023-04-15T11:35:50;4.03;;;1.30;;
64520;SDS011;50896;46.714;17.322;2023-04-15T11:38:19;4.97;;;2.85;;
64520;SDS011;50896;46.714;17.322;2023-04-15T11:40:47;5.30;;;3.60;;
64520;SDS011;50896;46.714;17.322;2023-04-15T11:45:49;6.82;;;3.80;;
64520;SDS011;50896;46.714;17.322;2023-04-15T11:48:24;2.85;;;2.00;;
64520;SDS011;50896;46.714;17.322;2023-04-15T11:50:54;8.48;;;5.65;;
64520;SDS011;50896;46.714;17.322;2023-04-15T11:53:22;8.18;;;3.20;;
64520;SDS011;50896;46.714;17.322;2023-04-15T11:55:51;7.95;;;4.88;;
64520;SDS011;50896;46.714;17.322;2023-04-15T11:58:20;2.10;;;1.88;;
64520;SDS011;50896;46.714;17.322;2023-04-15T12:00:49;0.90;;;0.47;;
64520;SDS011;50896;46.714;17.322;2023-04-15T12:08:51;2.13;;;1.30;;
64520;SDS011;50896;46.714;17.322;2023-04-15T12:14:10;1.58;;;0.93;;
64520;SDS011;50896;46.714;17.322;2023-04-15T12:16:39;1.83;;;1.20;;
64520;SDS011;50896;46.714;17.322;2023-04-15T12:19:17;2.50;;;1.58;;
64520;SDS011;50896;46.714;17.322;2023-04-15T12:21:49;2.17;;;1.20;;
64520;SDS011;50896;46.714;17.322;2023-04-15T12:24:18;2.13;;;1.30;;
64520;SDS011;50896;46.714;17.322;2023-04-15T12:26:49;2.35;;;1.50;;
64520;SDS011;50896;46.714;17.322;2023-04-15T12:29:19;2.28;;;1.10;;
64520;SDS011;50896;46.714;17.322;2023-04-15T12:31:51;2.60;;;0.85;;
64520;SDS011;50896;46.714;17.322;2023-04-15T12:34:27;1.17;;;0.80;;
64520;SDS011;50896;46.714;17.322;2023-04-15T12:36:55;2.33;;;1.00;;
64520;SDS011;50896;46.714;17.322;2023-04-15T12:39:23;2.88;;;1.90;;
64520;SDS011;50896;46.714;17.322;2023-04-15T12:41:53;3.47;;;2.85;;
64520;SDS011;50896;46.714;17.322;2023-04-15T12:44:23;6.10;;;3.35;;
64520;SDS011;50896;46.714;17.322;2023-04-15T12:46:50;4.28;;;2.40;;
64520;SDS011;50896;46.714;17.322;2023-04-15T12:51:47;6.50;;;3.90;;
64520;SDS011;50896;46.714;17.322;2023-04-15T12:54:16;9.45;;;5.40;;
64520;SDS011;50896;46.714;17.322;2023-04-15T12:56:44;7.38;;;4.50;;
64520;SDS011;50896;46.714;17.322;2023-04-15T12:59:12;7.57;;;4.50;;
64520;SDS011;50896;46.714;17.322;2023-04-15T13:01:39;6.25;;;3.70;;
64520;SDS011;50896;46.714;17.322;2023-04-15T13:04:06;4.60;;;2.90;;
64520;SDS011;50896;46.714;17.322;2023-04-15T13:06:34;5.45;;;3.65;;
64520;SDS011;50896;46.714;17.322;2023-04-15T13:09:02;7.38;;;2.33;;
64520;SDS011;50896;46.714;17.322;2023-04-15T13:11:31;3.83;;;2.67;;
64520;SDS011;50896;46.714;17.322;2023-04-15T13:14:05;4.32;;;1.90;;
64520;SDS011;50896;46.714;17.322;2023-04-15T13:16:34;2.35;;;1.35;;
64520;SDS011;50896;46.714;17.322;2023-04-15T13:19:02;2.20;;;1.38;;
64520;SDS011;50896;46.714;17.322;2023-04-15T13:21:29;2.45;;;1.65;;
64520;SDS011;50896;46.714;17.322;2023-04-15T13:24:01;3.58;;;1.75;;
64520;SDS011;50896;46.714;17.322;2023-04-15T13:26:28;1.45;;;1.23;;
64520;SDS011;50896;46.714;17.322;2023-04-15T13:28:55;1.17;;;1.00;;
64520;SDS011;50896;46.714;17.322;2023-04-15T13:31:22;0.98;;;0.82;;
64520;SDS011;50896;46.714;17.322;2023-04-15T13:33:48;0.82;;;0.80;;
64520;SDS011;50896;46.714;17.322;2023-04-15T13:36:15;1.00;;;0.90;;
64520;SDS011;50896;46.714;17.322;2023-04-15T13:38:42;1.42;;;0.80;;
64520;SDS011;50896;46.714;17.322;2023-04-15T13:41:09;1.20;;;1.10;;
64520;SDS011;50896;46.714;17.322;2023-04-15T13:43:35;4.28;;;2.97;;
64520;SDS011;50896;46.714;17.322;2023-04-15T13:46:02;4.55;;;2.10;;
64520;SDS011;50896;46.714;17.322;2023-04-15T13:48:29;1.92;;;1.27;;
64520;SDS011;50896;46.714;17.322;2023-04-15T13:50:56;1.50;;;1.30;;
64520;SDS011;50896;46.714;17.322;2023-04-15T13:53:23;1.30;;;1.10;;
64520;SDS011;50896;46.714;17.322;2023-04-15T13:56:07;2.42;;;1.02;;
64520;SDS011;50896;46.714;17.322;2023-04-15T13:58:35;2.30;;;0.90;;
64520;SDS011;50896;46.714;17.322;2023-04-15T14:01:03;2.58;;;1.20;;
64520;SDS011;50896;46.714;17.322;2023-04-15T14:03:32;2.13;;;1.40;;
64520;SDS011;50896;46.714;17.322;2023-04-15T14:06:00;7.63;;;4.38;;
64520;SDS011;50896;46.714;17.322;2023-04-15T14:08:27;7.40;;;3.85;;
64520;SDS011;50896;46.714;17.322;2023-04-15T14:10:55;3.28;;;2.33;;
64520;SDS011;50896;46.714;17.322;2023-04-15T14:13:23;2.75;;;2.33;;
64520;SDS011;50896;46.714;17.322;2023-04-15T14:15:50;3.88;;;2.72;;
64520;SDS011;50896;46.714;17.322;2023-04-15T14:18:17;2.95;;;2.53;;
64520;SDS011;50896;46.714;17.322;2023-04-15T14:20:44;3.15;;;2.20;;
64520;SDS011;50896;46.714;17.322;2023-04-15T14:23:10;3.30;;;2.20;;
64520;SDS011;50896;46.714;17.322;2023-04-15T14:25:37;3.90;;;1.95;;
64520;SDS011;50896;46.714;17.322;2023-04-15T14:28:07;3.08;;;1.48;;
64520;SDS011;50896;46.714;17.322;2023-04-15T14:30:33;2.72;;;1.90;;
64520;SDS011;50896;46.714;17.322;2023-04-15T14:33:01;2.47;;;1.60;;
64520;SDS011;50896;46.714;17.322;2023-04-15T14:35:28;3.70;;;1.20;;
64520;SDS011;50896;46.714;17.322;2023-04-15T14:37:54;2.33;;;0.70;;
64520;SDS011;50896;46.714;17.322;2023-04-15T14:40:21;1.08;;;0.98;;
64520;SDS011;50896;46.714;17.322;2023-04-15T14:42:48;0.80;;;0.60;;
64520;SDS011;50896;46.714;17.322;2023-04-15T14:45:15;2.45;;;1.20;;
64520;SDS011;50896;46.714;17.322;2023-04-15T14:47:43;0.90;;;0.75;;
64520;SDS011;50896;46.714;17.322;2023-04-15T14:50:10;1.83;;;0.90;;
64520;SDS011;50896;46.714;17.322;2023-04-15T14:52:37;1.73;;;0.80;;
64520;SDS011;50896;46.714;17.322;2023-04-15T14:57:32;2.42;;;1.00;;
64520;SDS011;50896;46.714;17.322;2023-04-15T14:59:58;1.58;;;0.90;;
64520;SDS011;50896;46.714;17.322;2023-04-15T15:02:25;1.15;;;0.90;;
64520;SDS011;50896;46.714;17.322;2023-04-15T15:05:05;1.33;;;1.00;;
64520;SDS011;50896;46.714;17.322;2023-04-15T15:07:32;2.22;;;1.30;;
64520;SDS011;50896;46.714;17.322;2023-04-15T15:09:59;1.15;;;1.00;;
64520;SDS011;50896;46.714;17.322;2023-04-15T15:12:26;1.10;;;0.82;;